sensor_id;sensor_type;location;lat;lon;timestamp;pressure;altitude;pressure_sealevel;temperature;humidity
42411;BME280;28056;51.112;0.984;2023-03-25T01:04:47;99212.03;;;6.05;82.10
42411;BME280;28056;51.112;0.984;2023-03-25T01:07:15;99212.09;;;6.40;81.74
42411;BME280;28056;51.112;0.984;2023-03-25T01:09:43;99227.50;;;5.70;84.04
42411;BME280;28056;51.112;0.984;2023-03-25T01:12:11;99212.58;;;6.45;81.67
42411;BME280;28056;51.112;0.984;2023-03-25T01:14:38;99211.90;;;6.95;81.68
42411;BME280;28056;51.112;0.984;2023-03-25T01:17:06;99208.31;;;6.49;82.28
42411;BME280;28056;51.112;0.984;2023-03-25T01:19:33;99208.43;;;6.36;82.74
42411;BME280;28056;51.112;0.984;2023-03-25T01:22:00;99208.19;;;6.32;83.92
42411;BME280;28056;51.112;0.984;2023-03-25T01:24:28;99215.29;;;6.50;82.64
42411;BME280;28056;51.112;0.984;2023-03-25T01:26:55;99205.58;;;6.52;81.82
42411;BME280;28056;51.112;0.984;2023-03-25T01:29:23;99216.52;;;7.23;78.51
42411;BME280;28056;51.112;0.984;2023-03-25T01:31:50;99208.32;;;6.54;79.75
42411;BME280;28056;51.112;0.984;2023-03-25T01:34:17;99218.08;;;5.97;82.44
42411;BME280;28056;51.112;0.984;2023-03-25T01:36:45;99211.86;;;6.17;82.28
42411;BME280;28056;51.112;0.984;2023-03-25T01:39:14;99207.02;;;6.44;82.95
42411;BME280;28056;51.112;0.984;2023-03-25T01:41:42;99205.96;;;6.55;80.24
42411;BME280;28056;51.112;0.984;2023-03-25T01:45:10;99216.58;;;6.13;82.79
42411;BME280;28056;51.112;0.984;2023-03-25T01:47:39;99206.30;;;6.62;81.25
42411;BME280;28056;51.112;0.984;2023-03-25T01:50:06;99202.80;;;6.12;81.14
42411;BME280;28056;51.112;0.984;2023-03-25T01:52:34;99201.88;;;6.22;80.80
42411;BME280;28056;51.112;0.984;2023-03-25T01:55:02;99200.66;;;6.26;79.79
42411;BME280;28056;51.112;0.984;2023-03-25T01:57:30;99209.87;;;5.87;80.59
42411;BME280;28056;51.112;0.984;2023-03-25T01:59:58;99195.94;;;6.20;81.15
42411;BME280;28056;51.112;0.984;2023-03-25T02:02:26;99206.44;;;5.98;81.06
42411;BME280;28056;51.112;0.984;2023-03-25T02:04:59;99197.98;;;6.02;79.70
42411;BME280;28056;51.112;0.984;2023-03-25T02:07:31;99198.73;;;5.73;80.60
42411;BME280;28056;51.112;0.984;2023-03-25T02:10:01;99204.19;;;6.65;78.24
42411;BME280;28056;51.112;0.984;2023-03-25T02:12:28;99216.36;;;6.21;78.81
42411;BME280;28056;51.112;0.984;2023-03-25T02:14:57;99223.79;;;5.92;79.20
42411;BME280;28056;51.112;0.984;2023-03-25T02:17:30;99220.74;;;6.27;79.56
42411;BME280;28056;51.112;0.984;2023-03-25T02:20:36;99226.73;;;6.18;80.00
42411;BME280;28056;51.112;0.984;2023-03-25T02:23:28;99225.43;;;6.65;78.23
42411;BME280;28056;51.112;0.984;2023-03-25T02:26:19;99237.71;;;6.21;76.86
42411;BME280;28056;51.112;0.984;2023-03-25T02:28:56;99234.93;;;6.04;80.19
42411;BME280;28056;51.112;0.984;2023-03-25T02:31:52;99226.71;;;5.84;81.29
42411;BME280;28056;51.112;0.984;2023-03-25T02:34:59;99231.33;;;5.56;82.02
42411;BME280;28056;51.112;0.984;2023-03-25T02:38:07;99230.44;;;6.27;79.93
42411;BME280;28056;51.112;0.984;2023-03-25T02:40:40;99231.52;;;5.48;82.38
42411;BME280;28056;51.112;0.984;2023-03-25T02:43:13;99227.55;;;6.38;78.86
42411;BME280;28056;51.112;0.984;2023-03-25T02:45:47;99226.83;;;5.67;79.98
42411;BME280;28056;51.112;0.984;2023-03-25T02:48:21;99234.07;;;5.50;81.59
42411;BME280;28056;51.112;0.984;2023-03-25T02:50:51;99234.36;;;5.54;81.60
42411;BME280;28056;51.112;0.984;2023-03-25T02:53:25;99236.96;;;5.56;82.74
42411;BME280;28056;51.112;0.984;2023-03-25T02:55:55;99232.00;;;5.89;81.46
42411;BME280;28056;51.112;0.984;2023-03-25T02:58:26;99219.79;;;6.82;77.17
42411;BME280;28056;51.112;0.984;2023-03-25T03:00:55;99237.59;;;5.97;79.25
42411;BME280;28056;51.112;0.984;2023-03-25T03:03:22;99242.35;;;6.41;77.70
42411;BME280;28056;51.112;0.984;2023-03-25T03:05:52;99245.49;;;5.97;77.80
42411;BME280;28056;51.112;0.984;2023-03-25T03:08:29;99243.84;;;6.07;78.19
42411;BME280;28056;51.112;0.984;2023-03-25T03:11:10;99249.46;;;6.20;77.96
42411;BME280;28056;51.112;0.984;2023-03-25T03:13:52;99245.19;;;5.91;78.80
42411;BME280;28056;51.112;0.984;2023-03-25T03:16:31;99246.94;;;6.07;77.85
42411;BME280;28056;51.112;0.984;2023-03-25T03:19:07;99255.23;;;6.12;79.46
42411;BME280;28056;51.112;0.984;2023-03-25T03:21:40;99246.31;;;5.86;78.60
42411;BME280;28056;51.112;0.984;2023-03-25T03:24:15;99252.08;;;6.42;77.75
42411;BME280;28056;51.112;0.984;2023-03-25T03:26:50;99249.28;;;5.87;78.10
42411;BME280;28056;51.112;0.984;2023-03-25T03:29:26;99254.06;;;5.41;80.37
42411;BME280;28056;51.112;0.984;2023-03-25T03:31:59;99257.17;;;5.41;81.19
42411;BME280;28056;51.112;0.984;2023-03-25T03:34:31;99256.14;;;6.75;76.98
42411;BME280;28056;51.112;0.984;2023-03-25T03:37:00;99268.11;;;5.30;79.60
42411;BME280;28056;51.112;0.984;2023-03-25T03:39:32;99269.40;;;6.41;76.20
42411;BME280;28056;51.112;0.984;2023-03-25T03:42:03;99268.01;;;6.47;75.38
42411;BME280;28056;51.112;0.984;2023-03-25T03:44:37;99274.83;;;6.56;76.82
42411;BME280;28056;51.112;0.984;2023-03-25T03:47:09;99269.75;;;5.66;78.34
42411;BME280;28056;51.112;0.984;2023-03-25T03:49:43;99269.57;;;5.59;79.41
42411;BME280;28056;51.112;0.984;2023-03-25T03:52:16;99278.53;;;5.11;80.83
42411;BME280;28056;51.112;0.984;2023-03-25T03:54:47;99274.98;;;6.27;77.89
42411;BME280;28056;51.112;0.984;2023-03-25T03:57:20;99277.07;;;6.38;77.39
42411;BME280;28056;51.112;0.984;2023-03-25T03:59:55;99281.50;;;6.32;76.07
42411;BME280;28056;51.112;0.984;2023-03-25T04:02:29;99274.10;;;5.91;77.39
42411;BME280;28056;51.112;0.984;2023-03-25T04:04:59;99289.80;;;5.79;77.26
42411;BME280;28056;51.112;0.984;2023-03-25T04:07:33;99284.94;;;6.03;76.00
42411;BME280;28056;51.112;0.984;2023-03-25T04:10:09;99290.18;;;5.49;78.77
42411;BME280;28056;51.112;0.984;2023-03-25T04:12:40;99276.66;;;5.44;78.79
42411;BME280;28056;51.112;0.984;2023-03-25T04:15:10;99282.50;;;5.51;77.50
42411;BME280;28056;51.112;0.984;2023-03-25T04:17:37;99288.31;;;5.67;76.68
42411;BME280;28056;51.112;0.984;2023-03-25T04:20:06;99294.02;;;5.16;78.99
42411;BME280;28056;51.112;0.984;2023-03-25T04:22:34;99289.83;;;5.56;78.62
42411;BME280;28056;51.112;0.984;2023-03-25T04:25:02;99298.89;;;5.47;79.39
42411;BME280;28056;51.112;0.984;2023-03-25T04:27:29;99287.46;;;5.52;78.02
42411;BME280;28056;51.112;0.984;2023-03-25T04:29:56;99289.89;;;6.06;75.47
42411;BME280;28056;51.112;0.984;2023-03-25T04:32:24;99288.51;;;5.72;78.70
42411;BME280;28056;51.112;0.984;2023-03-25T04:34:51;99297.94;;;6.15;76.46
42411;BME280;28056;51.112;0.984;2023-03-25T04:37:18;99296.51;;;5.76;78.57
42411;BME280;28056;51.112;0.984;2023-03-25T04:39:46;99297.97;;;6.21;75.04
42411;BME280;28056;51.112;0.984;2023-03-25T04:42:13;99308.55;;;5.72;76.80
42411;BME280;28056;51.112;0.984;2023-03-25T04:44:40;99301.60;;;5.89;76.23
42411;BME280;28056;51.112;0.984;2023-03-25T04:47:09;99306.26;;;5.76;77.15
42411;BME280;28056;51.112;0.984;2023-03-25T04:49:38;99307.73;;;6.04;76.37
42411;BME280;28056;51.112;0.984;2023-03-25T04:52:06;99314.44;;;5.86;76.71
42411;BME280;28056;51.112;0.984;2023-03-25T04:54:34;99307.93;;;5.92;77.10
42411;BME280;28056;51.112;0.984;2023-03-25T04:57:01;99308.82;;;5.05;80.23
42411;BME280;28056;51.112;0.984;2023-03-25T04:59:28;99307.38;;;5.47;77.27
42411;BME280;28056;51.112;0.984;2023-03-25T05:01:56;99308.34;;;5.66;78.09
42411;BME280;28056;51.112;0.984;2023-03-25T05:04:24;99315.41;;;5.59;76.95
42411;BME280;28056;51.112;0.984;2023-03-25T05:06:51;99313.90;;;5.68;77.30
42411;BME280;28056;51.112;0.984;2023-03-25T05:09:20;99312.27;;;6.54;74.43
42411;BME280;28056;51.112;0.984;2023-03-25T05:11:49;99313.01;;;5.49;76.77
42411;BME280;28056;51.112;0.984;2023-03-25T05:14:18;99320.50;;;5.59;78.72
42411;BME280;28056;51.112;0.984;2023-03-25T05:16:46;99328.80;;;5.63;77.89
42411;BME280;28056;51.112;0.984;2023-03-25T05:19:14;99321.79;;;5.24;77.94
42411;BME280;28056;51.112;0.984;2023-03-25T05:21:41;99327.34;;;6.11;76.23
42411;BME280;28056;51.112;0.984;2023-03-25T05:24:10;99333.64;;;5.29;79.35
42411;BME280;28056;51.112;0.984;2023-03-25T05:26:39;99328.44;;;5.50;77.94
42411;BME280;28056;51.112;0.984;2023-03-25T05:29:09;99334.19;;;5.22;80.07
42411;BME280;28056;51.112;0.984;2023-03-25T05:31:36;99335.00;;;5.87;77.02
42411;BME280;28056;51.112;0.984;2023-03-25T05:34:03;99328.40;;;6.03;76.41
42411;BME280;28056;51.112;0.984;2023-03-25T05:36:31;99340.40;;;5.64;78.05
42411;BME280;28056;51.112;0.984;2023-03-25T05:38:59;99337.26;;;6.53;76.50
42411;BME280;28056;51.112;0.984;2023-03-25T05:41:27;99339.61;;;6.29;76.82
42411;BME280;28056;51.112;0.984;2023-03-25T05:43:54;99357.00;;;5.79;77.38
42411;BME280;28056;51.112;0.984;2023-03-25T05:46:22;99350.84;;;6.17;76.03
42411;BME280;28056;51.112;0.984;2023-03-25T05:48:49;99339.49;;;5.77;77.40
42411;BME280;28056;51.112;0.984;2023-03-25T05:51:17;99333.72;;;5.49;78.68
42411;BME280;28056;51.112;0.984;2023-03-25T05:53:46;99337.97;;;5.49;77.71
42411;BME280;28056;51.112;0.984;2023-03-25T05:56:13;99348.88;;;5.38;77.80
42411;BME280;28056;51.112;0.984;2023-03-25T05:58:41;99340.78;;;5.87;76.49
42411;BME280;28056;51.112;0.984;2023-03-25T06:01:09;99349.40;;;5.69;77.27
42411;BME280;28056;51.112;0.984;2023-03-25T06:03:37;99348.33;;;5.49;77.87
42411;BME280;28056;51.112;0.984;2023-03-25T06:06:06;99354.54;;;5.43;79.33
42411;BME280;28056;51.112;0.984;2023-03-25T06:08:33;99343.45;;;5.19;80.27
42411;BME280;28056;51.112;0.984;2023-03-25T06:11:03;99353.84;;;5.67;79.38
42411;BME280;28056;51.112;0.984;2023-03-25T06:13:31;99353.01;;;5.81;78.35
42411;BME280;28056;51.112;0.984;2023-03-25T06:15:58;99358.19;;;6.06;77.78
42411;BME280;28056;51.112;0.984;2023-03-25T06:18:25;99347.12;;;5.11;80.82
42411;BME280;28056;51.112;0.984;2023-03-25T06:20:52;99363.66;;;5.98;79.58
42411;BME280;28056;51.112;0.984;2023-03-25T06:23:20;99371.00;;;5.54;79.47
42411;BME280;28056;51.112;0.984;2023-03-25T06:25:48;99362.14;;;5.57;79.54
42411;BME280;28056;51.112;0.984;2023-03-25T06:28:15;99365.20;;;5.51;80.46
42411;BME280;28056;51.112;0.984;2023-03-25T06:30:43;99363.62;;;5.40;80.94
42411;BME280;28056;51.112;0.984;2023-03-25T06:33:11;99370.57;;;6.44;77.45
42411;BME280;28056;51.112;0.984;2023-03-25T06:35:39;99374.18;;;5.73;78.07
42411;BME280;28056;51.112;0.984;2023-03-25T06:38:07;99376.47;;;5.63;80.67
42411;BME280;28056;51.112;0.984;2023-03-25T06:40:34;99389.18;;;5.71;80.68
42411;BME280;28056;51.112;0.984;2023-03-25T06:43:02;99386.41;;;6.04;79.31
42411;BME280;28056;51.112;0.984;2023-03-25T06:45:29;99386.82;;;6.15;79.92
42411;BME280;28056;51.112;0.984;2023-03-25T06:47:56;99382.24;;;6.50;77.26
42411;BME280;28056;51.112;0.984;2023-03-25T06:50:24;99386.49;;;5.97;79.60
42411;BME280;28056;51.112;0.984;2023-03-25T06:52:52;99386.20;;;5.92;80.50
42411;BME280;28056;51.112;0.984;2023-03-25T06:55:19;99393.98;;;6.32;78.61
42411;BME280;28056;51.112;0.984;2023-03-25T06:57:46;99388.37;;;6.30;78.02
42411;BME280;28056;51.112;0.984;2023-03-25T07:00:13;99388.67;;;6.45;76.13
42411;BME280;28056;51.112;0.984;2023-03-25T07:02:40;99390.27;;;5.80;78.55
42411;BME280;28056;51.112;0.984;2023-03-25T07:05:08;99392.82;;;5.90;79.53
42411;BME280;28056;51.112;0.984;2023-03-25T07:07:35;99393.62;;;6.44;77.68
42411;BME280;28056;51.112;0.984;2023-03-25T07:10:02;99383.69;;;6.18;79.69
42411;BME280;28056;51.112;0.984;2023-03-25T07:12:32;99417.38;;;5.77;80.53
42411;BME280;28056;51.112;0.984;2023-03-25T07:15:00;99397.06;;;6.26;79.56
42411;BME280;28056;51.112;0.984;2023-03-25T07:17:28;99402.04;;;6.23;79.47
42411;BME280;28056;51.112;0.984;2023-03-25T07:19:55;99422.33;;;6.52;77.73
42411;BME280;28056;51.112;0.984;2023-03-25T07:22:23;99401.18;;;6.61;78.97
42411;BME280;28056;51.112;0.984;2023-03-25T07:24:51;99397.90;;;6.56;80.30
42411;BME280;28056;51.112;0.984;2023-03-25T07:27:19;99397.59;;;6.16;78.48
42411;BME280;28056;51.112;0.984;2023-03-25T07:29:46;99401.13;;;6.28;78.69
42411;BME280;28056;51.112;0.984;2023-03-25T07:32:14;99406.20;;;6.39;77.46
42411;BME280;28056;51.112;0.984;2023-03-25T07:34:41;99404.79;;;6.67;76.12
42411;BME280;28056;51.112;0.984;2023-03-25T07:37:08;99414.92;;;5.81;79.12
42411;BME280;28056;51.112;0.984;2023-03-25T07:39:36;99416.25;;;7.08;76.11
42411;BME280;28056;51.112;0.984;2023-03-25T07:42:04;99418.90;;;6.70;77.85
42411;BME280;28056;51.112;0.984;2023-03-25T07:44:32;99427.98;;;6.89;75.11
42411;BME280;28056;51.112;0.984;2023-03-25T07:46:59;99428.71;;;7.02;75.15
42411;BME280;28056;51.112;0.984;2023-03-25T07:49:27;99434.52;;;6.70;75.10
42411;BME280;28056;51.112;0.984;2023-03-25T07:51:54;99437.69;;;7.10;74.20
42411;BME280;28056;51.112;0.984;2023-03-25T07:54:22;99431.43;;;6.62;75.60
42411;BME280;28056;51.112;0.984;2023-03-25T07:56:50;99432.72;;;7.06;74.56
42411;BME280;28056;51.112;0.984;2023-03-25T07:59:17;99432.53;;;6.55;76.57
42411;BME280;28056;51.112;0.984;2023-03-25T08:01:46;99434.03;;;7.15;73.20
42411;BME280;28056;51.112;0.984;2023-03-25T08:04:13;99429.58;;;6.65;75.46
42411;BME280;28056;51.112;0.984;2023-03-25T08:06:41;99442.40;;;7.11;72.90
42411;BME280;28056;51.112;0.984;2023-03-25T08:09:09;99415.96;;;6.98;73.67
42411;BME280;28056;51.112;0.984;2023-03-25T08:11:36;99438.25;;;6.10;76.64
42411;BME280;28056;51.112;0.984;2023-03-25T08:14:05;99416.03;;;6.46;76.76
42411;BME280;28056;51.112;0.984;2023-03-25T08:16:32;99433.54;;;6.68;76.10
42411;BME280;28056;51.112;0.984;2023-03-25T08:19:00;99412.10;;;7.05;74.15
42411;BME280;28056;51.112;0.984;2023-03-25T08:21:28;99430.39;;;7.47;73.82
42411;BME280;28056;51.112;0.984;2023-03-25T08:23:56;99434.12;;;6.71;74.74
42411;BME280;28056;51.112;0.984;2023-03-25T08:26:23;99424.97;;;7.07;74.50
42411;BME280;28056;51.112;0.984;2023-03-25T08:28:51;99434.35;;;7.95;70.64
42411;BME280;28056;51.112;0.984;2023-03-25T08:31:19;99450.93;;;7.21;72.01
42411;BME280;28056;51.112;0.984;2023-03-25T08:33:46;99449.82;;;7.59;71.77
42411;BME280;28056;51.112;0.984;2023-03-25T08:36:14;99444.22;;;7.40;70.89
42411;BME280;28056;51.112;0.984;2023-03-25T08:38:42;99447.69;;;7.24;71.90
42411;BME280;28056;51.112;0.984;2023-03-25T08:41:09;99452.34;;;6.82;73.91
42411;BME280;28056;51.112;0.984;2023-03-25T08:43:36;99455.50;;;7.45;72.62
42411;BME280;28056;51.112;0.984;2023-03-25T08:46:04;99453.66;;;7.04;72.58
42411;BME280;28056;51.112;0.984;2023-03-25T08:48:32;99472.45;;;7.53;71.35
42411;BME280;28056;51.112;0.984;2023-03-25T08:50:59;99491.26;;;7.99;70.45
42411;BME280;28056;51.112;0.984;2023-03-25T08:53:27;99499.09;;;7.47;71.13
42411;BME280;28056;51.112;0.984;2023-03-25T08:55:56;99494.13;;;6.80;72.21
42411;BME280;28056;51.112;0.984;2023-03-25T08:58:25;99522.15;;;7.21;71.76
42411;BME280;28056;51.112;0.984;2023-03-25T09:00:54;99508.38;;;7.59;69.78
42411;BME280;28056;51.112;0.984;2023-03-25T09:03:23;99512.52;;;6.89;71.94
42411;BME280;28056;51.112;0.984;2023-03-25T09:05:50;99520.79;;;7.45;72.69
42411;BME280;28056;51.112;0.984;2023-03-25T09:08:18;99525.81;;;6.71;71.24
42411;BME280;28056;51.112;0.984;2023-03-25T09:10:46;99534.82;;;6.87;70.54
42411;BME280;28056;51.112;0.984;2023-03-25T09:13:13;99536.85;;;7.40;70.33
42411;BME280;28056;51.112;0.984;2023-03-25T09:15:41;99537.93;;;7.29;70.96
42411;BME280;28056;51.112;0.984;2023-03-25T09:18:09;99538.62;;;7.30;69.90
42411;BME280;28056;51.112;0.984;2023-03-25T09:20:36;99548.50;;;8.02;68.16
42411;BME280;28056;51.112;0.984;2023-03-25T09:23:03;99550.69;;;6.93;71.46
42411;BME280;28056;51.112;0.984;2023-03-25T09:25:31;99537.10;;;7.42;70.14
42411;BME280;28056;51.112;0.984;2023-03-25T09:27:59;99554.37;;;8.29;71.01
42411;BME280;28056;51.112;0.984;2023-03-25T09:30:26;99539.80;;;8.54;65.68
42411;BME280;28056;51.112;0.984;2023-03-25T09:32:53;99542.06;;;7.11;68.37
42411;BME280;28056;51.112;0.984;2023-03-25T09:35:19;99546.60;;;7.97;67.95
42411;BME280;28056;51.112;0.984;2023-03-25T09:37:47;99557.54;;;7.37;68.28
42411;BME280;28056;51.112;0.984;2023-03-25T09:40:16;99553.55;;;7.38;68.82
42411;BME280;28056;51.112;0.984;2023-03-25T09:42:56;99559.17;;;8.04;66.74
42411;BME280;28056;51.112;0.984;2023-03-25T09:45:34;99569.37;;;7.63;67.50
42411;BME280;28056;51.112;0.984;2023-03-25T09:48:08;99579.20;;;7.95;65.14
42411;BME280;28056;51.112;0.984;2023-03-25T09:50:42;99556.44;;;7.30;63.58
42411;BME280;28056;51.112;0.984;2023-03-25T09:53:18;99588.70;;;7.34;67.07
42411;BME280;28056;51.112;0.984;2023-03-25T09:55:49;99597.30;;;7.34;65.99
42411;BME280;28056;51.112;0.984;2023-03-25T09:58:27;99592.09;;;7.24;65.99
42411;BME280;28056;51.112;0.984;2023-03-25T10:00:59;99594.91;;;7.67;66.63
42411;BME280;28056;51.112;0.984;2023-03-25T10:03:33;99598.92;;;7.44;63.53
42411;BME280;28056;51.112;0.984;2023-03-25T10:06:11;99600.55;;;7.56;64.74
42411;BME280;28056;51.112;0.984;2023-03-25T10:08:50;99612.08;;;7.52;65.94
42411;BME280;28056;51.112;0.984;2023-03-25T10:11:27;99619.25;;;7.58;66.04
42411;BME280;28056;51.112;0.984;2023-03-25T10:14:01;99602.63;;;7.49;64.10
42411;BME280;28056;51.112;0.984;2023-03-25T10:16:39;99619.78;;;7.73;63.68
42411;BME280;28056;51.112;0.984;2023-03-25T10:19:25;99608.61;;;7.79;64.89
42411;BME280;28056;51.112;0.984;2023-03-25T10:22:01;99616.07;;;7.85;63.95
42411;BME280;28056;51.112;0.984;2023-03-25T10:24:33;99622.70;;;8.08;64.01
42411;BME280;28056;51.112;0.984;2023-03-25T10:27:05;99626.69;;;9.03;60.70
42411;BME280;28056;51.112;0.984;2023-03-25T10:29:42;99625.77;;;8.45;66.11
42411;BME280;28056;51.112;0.984;2023-03-25T10:32:16;99630.97;;;8.50;62.12
42411;BME280;28056;51.112;0.984;2023-03-25T10:34:46;99629.62;;;8.63;63.33
42411;BME280;28056;51.112;0.984;2023-03-25T10:37:20;99633.28;;;8.16;63.16
42411;BME280;28056;51.112;0.984;2023-03-25T10:39:51;99619.43;;;8.12;62.87
42411;BME280;28056;51.112;0.984;2023-03-25T10:42:23;99637.79;;;8.62;63.78
42411;BME280;28056;51.112;0.984;2023-03-25T10:44:52;99642.11;;;8.34;61.80
42411;BME280;28056;51.112;0.984;2023-03-25T10:47:23;99642.49;;;8.68;61.91
42411;BME280;28056;51.112;0.984;2023-03-25T10:49:53;99652.80;;;8.40;63.52
42411;BME280;28056;51.112;0.984;2023-03-25T10:52:21;99635.18;;;8.14;63.58
42411;BME280;28056;51.112;0.984;2023-03-25T10:54:52;99649.83;;;8.41;64.08
42411;BME280;28056;51.112;0.984;2023-03-25T10:57:24;99648.12;;;8.79;65.14
42411;BME280;28056;51.112;0.984;2023-03-25T10:59:58;99649.05;;;8.93;61.47
42411;BME280;28056;51.112;0.984;2023-03-25T11:02:29;99654.92;;;8.56;62.50
42411;BME280;28056;51.112;0.984;2023-03-25T11:05:00;99647.00;;;8.39;62.00
42411;BME280;28056;51.112;0.984;2023-03-25T11:07:32;99648.59;;;8.55;60.51
42411;BME280;28056;51.112;0.984;2023-03-25T11:10:13;99650.55;;;8.78;61.63
42411;BME280;28056;51.112;0.984;2023-03-25T11:12:41;99655.19;;;8.42;60.36
42411;BME280;28056;51.112;0.984;2023-03-25T11:15:13;99650.23;;;8.73;60.61
42411;BME280;28056;51.112;0.984;2023-03-25T11:17:41;99658.56;;;8.96;60.74
42411;BME280;28056;51.112;0.984;2023-03-25T11:20:18;99663.36;;;8.68;62.36
42411;BME280;28056;51.112;0.984;2023-03-25T11:22:49;99676.36;;;8.28;61.07
42411;BME280;28056;51.112;0.984;2023-03-25T11:25:23;99674.62;;;8.78;62.93
42411;BME280;28056;51.112;0.984;2023-03-25T11:27:55;99676.55;;;8.61;62.48
42411;BME280;28056;51.112;0.984;2023-03-25T11:30:25;99675.15;;;9.15;60.76
42411;BME280;28056;51.112;0.984;2023-03-25T11:32:57;99678.72;;;8.60;59.73
42411;BME280;28056;51.112;0.984;2023-03-25T11:35:27;99685.56;;;8.47;60.41
42411;BME280;28056;51.112;0.984;2023-03-25T11:37:56;99690.40;;;8.80;61.99
42411;BME280;28056;51.112;0.984;2023-03-25T11:40:25;99696.94;;;8.54;62.28
42411;BME280;28056;51.112;0.984;2023-03-25T11:42:54;99699.09;;;9.01;63.25
42411;BME280;28056;51.112;0.984;2023-03-25T11:45:25;99699.45;;;9.24;62.42
42411;BME280;28056;51.112;0.984;2023-03-25T11:47:57;99696.50;;;10.38;60.87
42411;BME280;28056;51.112;0.984;2023-03-25T11:50:27;99691.85;;;10.26;62.20
42411;BME280;28056;51.112;0.984;2023-03-25T11:52:57;99680.38;;;9.99;59.34
42411;BME280;28056;51.112;0.984;2023-03-25T11:55:27;99694.82;;;9.35;60.41
42411;BME280;28056;51.112;0.984;2023-03-25T11:57:58;99693.64;;;9.65;58.45
42411;BME280;28056;51.112;0.984;2023-03-25T12:00:31;99707.56;;;9.12;59.92
42411;BME280;28056;51.112;0.984;2023-03-25T12:03:01;99699.13;;;8.69;62.99
42411;BME280;28056;51.112;0.984;2023-03-25T12:05:31;99703.71;;;8.65;62.58
42411;BME280;28056;51.112;0.984;2023-03-25T12:08:04;99708.24;;;8.96;61.26
42411;BME280;28056;51.112;0.984;2023-03-25T12:10:44;99711.13;;;9.15;61.98
42411;BME280;28056;51.112;0.984;2023-03-25T12:13:23;99705.60;;;9.12;61.40
42411;BME280;28056;51.112;0.984;2023-03-25T12:16:00;99703.79;;;8.64;61.72
42411;BME280;28056;51.112;0.984;2023-03-25T12:18:47;99704.78;;;9.02;60.05
42411;BME280;28056;51.112;0.984;2023-03-25T12:21:30;99711.63;;;8.81;61.16
42411;BME280;28056;51.112;0.984;2023-03-25T12:24:12;99713.55;;;9.14;56.99
42411;BME280;28056;51.112;0.984;2023-03-25T12:26:50;99703.63;;;8.77;57.91
42411;BME280;28056;51.112;0.984;2023-03-25T12:29:30;99717.64;;;8.85;58.86
42411;BME280;28056;51.112;0.984;2023-03-25T12:32:09;99706.98;;;8.62;58.28
42411;BME280;28056;51.112;0.984;2023-03-25T12:34:51;99709.00;;;8.50;57.96
42411;BME280;28056;51.112;0.984;2023-03-25T12:37:29;99709.83;;;8.61;58.89
42411;BME280;28056;51.112;0.984;2023-03-25T12:40:16;99699.98;;;8.69;58.95
42411;BME280;28056;51.112;0.984;2023-03-25T12:42:53;99707.86;;;8.81;58.79
42411;BME280;28056;51.112;0.984;2023-03-25T12:45:36;99703.45;;;9.16;56.43
42411;BME280;28056;51.112;0.984;2023-03-25T12:48:16;99700.71;;;9.51;56.59
42411;BME280;28056;51.112;0.984;2023-03-25T12:50:54;99700.22;;;9.26;56.49
42411;BME280;28056;51.112;0.984;2023-03-25T12:53:40;99705.02;;;9.22;56.52
42411;BME280;28056;51.112;0.984;2023-03-25T12:56:25;99698.30;;;9.23;57.37
42411;BME280;28056;51.112;0.984;2023-03-25T12:59:08;99711.06;;;9.24;58.18
42411;BME280;28056;51.112;0.984;2023-03-25T13:01:46;99699.26;;;8.98;58.67
42411;BME280;28056;51.112;0.984;2023-03-25T13:04:31;99711.69;;;8.90;58.70
42411;BME280;28056;51.112;0.984;2023-03-25T13:07:08;99715.88;;;9.33;59.23
42411;BME280;28056;51.112;0.984;2023-03-25T13:09:42;99726.33;;;8.84;59.93
42411;BME280;28056;51.112;0.984;2023-03-25T13:12:16;99730.78;;;9.28;65.82
42411;BME280;28056;51.112;0.984;2023-03-25T13:14:54;99712.69;;;10.99;61.98
42411;BME280;28056;51.112;0.984;2023-03-25T13:17:27;99713.68;;;12.13;56.05
42411;BME280;28056;51.112;0.984;2023-03-25T13:19:59;99708.22;;;10.66;57.01
42411;BME280;28056;51.112;0.984;2023-03-25T13:22:31;99709.22;;;9.90;55.44
42411;BME280;28056;51.112;0.984;2023-03-25T13:25:03;99709.45;;;9.63;56.53
42411;BME280;28056;51.112;0.984;2023-03-25T13:27:33;99721.02;;;9.49;55.88
42411;BME280;28056;51.112;0.984;2023-03-25T13:30:06;99720.10;;;9.84;55.01
42411;BME280;28056;51.112;0.984;2023-03-25T13:32:42;99716.17;;;9.90;54.34
42411;BME280;28056;51.112;0.984;2023-03-25T13:35:15;99715.74;;;9.67;53.05
42411;BME280;28056;51.112;0.984;2023-03-25T13:37:47;99715.92;;;9.72;50.39
42411;BME280;28056;51.112;0.984;2023-03-25T13:40:22;99721.83;;;9.38;53.43
42411;BME280;28056;51.112;0.984;2023-03-25T13:42:57;99711.88;;;9.35;53.49
42411;BME280;28056;51.112;0.984;2023-03-25T13:45:28;99729.92;;;9.38;53.76
42411;BME280;28056;51.112;0.984;2023-03-25T13:48:03;99722.45;;;9.45;53.66
42411;BME280;28056;51.112;0.984;2023-03-25T13:50:33;99722.18;;;9.43;53.62
42411;BME280;28056;51.112;0.984;2023-03-25T13:53:06;99726.73;;;9.69;54.61
42411;BME280;28056;51.112;0.984;2023-03-25T13:55:36;99722.32;;;10.08;53.33
42411;BME280;28056;51.112;0.984;2023-03-25T13:58:26;99719.05;;;10.74;51.19
42411;BME280;28056;51.112;0.984;2023-03-25T14:02:06;99725.95;;;10.61;53.87
42411;BME280;28056;51.112;0.984;2023-03-25T14:05:53;99728.72;;;10.46;57.71
42411;BME280;28056;51.112;0.984;2023-03-25T14:08:47;99724.07;;;11.04;55.22
42411;BME280;28056;51.112;0.984;2023-03-25T14:11:24;99736.93;;;11.27;52.97
42411;BME280;28056;51.112;0.984;2023-03-25T14:13:55;99728.84;;;10.43;53.01
42411;BME280;28056;51.112;0.984;2023-03-25T14:16:28;99734.11;;;10.92;58.28
42411;BME280;28056;51.112;0.984;2023-03-25T14:19:01;99741.76;;;10.33;61.33
42411;BME280;28056;51.112;0.984;2023-03-25T14:21:33;99756.66;;;9.28;66.40
42411;BME280;28056;51.112;0.984;2023-03-25T14:24:11;99756.94;;;8.83;64.69
42411;BME280;28056;51.112;0.984;2023-03-25T14:26:45;99760.08;;;8.57;64.65
42411;BME280;28056;51.112;0.984;2023-03-25T14:29:20;99753.65;;;8.64;64.68
42411;BME280;28056;51.112;0.984;2023-03-25T14:32:28;99762.01;;;9.11;66.67
42411;BME280;28056;51.112;0.984;2023-03-25T14:35:44;99760.76;;;8.79;67.68
42411;BME280;28056;51.112;0.984;2023-03-25T14:38:54;99760.17;;;9.11;70.26
42411;BME280;28056;51.112;0.984;2023-03-25T14:42:28;99759.78;;;9.61;68.84